createdAt,value
2018-03-23T00:00:09.134Z,7.77
2018-03-23T00:02:37.239Z,7.70
2018-03-23T00:05:05.983Z,7.70
2018-03-23T00:07:34.087Z,7.71
2018-03-23T00:10:02.178Z,7.65
2018-03-23T00:12:30.300Z,7.61
2018-03-23T00:14:58.407Z,7.63
2018-03-23T00:17:26.503Z,7.63
2018-03-23T00:19:54.599Z,7.58
2018-03-23T00:22:22.700Z,7.65
2018-03-23T00:24:51.104Z,7.61
2018-03-23T00:27:19.495Z,7.63
2018-03-23T00:29:47.582Z,7.66
2018-03-23T00:32:15.838Z,7.73
2018-03-23T00:34:43.930Z,7.69
2018-03-23T00:37:12.943Z,7.67
2018-03-23T00:39:41.054Z,7.68
2018-03-23T00:42:09.151Z,7.63
2018-03-23T00:44:38.337Z,7.63
2018-03-23T00:47:06.442Z,7.66
2018-03-23T00:49:34.584Z,7.66
2018-03-23T00:52:02.666Z,7.71
2018-03-23T00:54:31.014Z,7.65
2018-03-23T00:56:59.970Z,7.63
2018-03-23T00:59:28.167Z,7.68
2018-03-23T01:01:56.251Z,7.64
2018-03-23T01:04:24.367Z,7.63
2018-03-23T01:06:52.459Z,7.64
2018-03-23T01:09:20.551Z,7.70
2018-03-23T01:11:48.642Z,7.71
2018-03-23T01:14:16.767Z,7.75
2018-03-23T01:16:45.620Z,7.75
2018-03-23T01:19:13.711Z,7.72
2018-03-23T01:21:41.835Z,7.72
2018-03-23T01:24:09.916Z,7.66
2018-03-23T01:26:38.002Z,7.69
2018-03-23T01:29:06.135Z,7.70
2018-03-23T01:31:34.210Z,7.67
2018-03-23T01:34:02.315Z,7.69
2018-03-23T01:36:30.445Z,7.66
2018-03-23T01:38:58.513Z,7.65
2018-03-23T01:41:27.285Z,7.60
2018-03-23T01:43:55.395Z,7.56
2018-03-23T01:46:23.770Z,7.58
2018-03-23T01:48:51.919Z,7.52
2018-03-23T01:51:20.034Z,7.59
2018-03-23T01:53:49.031Z,7.54
2018-03-23T01:56:17.781Z,7.46
2018-03-23T01:58:45.925Z,7.39
2018-03-23T02:01:14.007Z,7.39
2018-03-23T02:03:42.109Z,7.37
2018-03-23T02:06:11.170Z,7.38
2018-03-23T02:08:39.247Z,7.32
2018-03-23T02:11:07.571Z,7.33
2018-03-23T02:13:35.690Z,7.36
2018-03-23T02:16:03.773Z,7.34
2018-03-23T02:18:31.875Z,7.37
2018-03-23T02:21:03.727Z,7.28
2018-03-23T02:23:31.811Z,7.22
2018-03-23T02:26:00.285Z,7.26
2018-03-23T02:28:29.570Z,7.32
2018-03-23T02:30:57.668Z,7.29
2018-03-23T02:33:26.365Z,7.38
2018-03-23T02:35:55.107Z,7.38
2018-03-23T02:38:23.207Z,7.38
2018-03-23T02:40:51.324Z,7.42
2018-03-23T02:43:19.455Z,7.46
2018-03-23T02:45:48.343Z,7.36
2018-03-23T02:48:17.070Z,7.38
2018-03-23T02:50:45.892Z,7.40
2018-03-23T02:53:14.032Z,7.45
2018-03-23T02:55:42.122Z,7.46
2018-03-23T02:58:10.261Z,7.45
2018-03-23T03:00:38.412Z,7.40
2018-03-23T03:03:06.532Z,7.41
2018-03-23T03:05:34.610Z,7.39
2018-03-23T03:08:02.731Z,7.39
2018-03-23T03:10:31.171Z,7.33
2018-03-23T03:12:59.265Z,7.24
2018-03-23T03:15:27.378Z,7.22
2018-03-23T03:17:55.501Z,7.24
2018-03-23T03:20:23.591Z,7.28
2018-03-23T03:22:51.696Z,7.28
2018-03-23T03:25:19.790Z,7.19
2018-03-23T03:27:48.643Z,7.18
2018-03-23T03:30:16.784Z,7.23
2018-03-23T03:32:44.888Z,7.19
2018-03-23T03:35:13.157Z,7.19
2018-03-23T03:37:41.304Z,7.16
2018-03-23T03:40:09.883Z,7.19
2018-03-23T03:42:37.995Z,7.21
2018-03-23T03:45:06.106Z,7.21
2018-03-23T03:47:34.231Z,7.26
2018-03-23T03:50:02.431Z,7.23
2018-03-23T03:52:30.524Z,7.28
2018-03-23T03:54:58.827Z,7.28
2018-03-23T03:57:26.969Z,7.25
2018-03-23T03:59:55.969Z,7.21
2018-03-23T04:02:24.449Z,7.23
2018-03-23T04:04:52.812Z,7.18
2018-03-23T04:20:20.927Z,6.96
2018-03-23T04:22:49.037Z,6.98
2018-03-23T04:25:17.145Z,6.99
2018-03-23T04:27:45.242Z,6.99
2018-03-23T04:30:13.573Z,7.03
2018-03-23T04:32:41.687Z,7.13
2018-03-23T04:35:09.783Z,7.15
2018-03-23T04:37:42.883Z,7.15
2018-03-23T04:40:10.993Z,7.19
2018-03-23T04:42:39.435Z,7.12
2018-03-23T04:45:07.547Z,7.18
2018-03-23T04:47:35.705Z,7.16
2018-03-23T04:50:03.826Z,7.13
2018-03-23T04:52:32.149Z,7.13
2018-03-23T04:55:00.505Z,7.14
2018-03-23T04:57:28.643Z,7.20
2018-03-23T04:59:56.743Z,7.17
2018-03-23T05:02:25.812Z,7.15
2018-03-23T05:04:54.547Z,7.23
2018-03-23T05:07:22.646Z,7.15
2018-03-23T05:09:50.748Z,7.19
2018-03-23T05:25:19.803Z,7.01
2018-03-23T05:27:47.887Z,6.93
2018-03-23T05:30:15.989Z,6.78
2018-03-23T05:32:44.109Z,6.82
2018-03-23T05:35:12.201Z,6.82
2018-03-23T05:37:40.308Z,6.82
2018-03-23T05:40:09.229Z,6.89
2018-03-23T05:42:37.993Z,6.86
2018-03-23T05:45:06.084Z,6.81
2018-03-23T05:47:34.209Z,6.86
2018-03-23T05:50:02.322Z,6.77
2018-03-23T05:52:30.645Z,6.76
2018-03-23T05:54:58.745Z,6.79
2018-03-23T05:57:26.908Z,6.80
2018-03-23T05:59:55.043Z,6.73
2018-03-23T06:02:23.103Z,6.77
2018-03-23T06:04:51.205Z,6.81
2018-03-23T06:07:19.347Z,6.93
2018-03-23T06:09:47.452Z,6.85
2018-03-23T06:12:15.891Z,6.89
2018-03-23T06:14:43.993Z,6.80
2018-03-23T06:17:12.559Z,6.84
2018-03-23T06:19:40.656Z,6.86
2018-03-23T06:22:08.791Z,6.81
2018-03-23T06:24:36.899Z,6.77
2018-03-23T06:27:05.007Z,6.72
2018-03-23T06:29:33.123Z,6.79
2018-03-23T06:32:01.239Z,6.80
2018-03-23T06:34:29.318Z,6.83
2018-03-23T06:36:57.441Z,6.86
2018-03-23T06:39:25.574Z,6.84
2018-03-23T06:41:54.665Z,6.75
2018-03-23T06:44:22.795Z,6.85
2018-03-23T06:46:50.905Z,6.89
2018-03-23T06:49:19.013Z,6.89
2018-03-23T06:54:21.661Z,6.87
2018-03-23T06:56:50.719Z,6.90
2018-03-23T06:59:18.831Z,6.85
2018-03-23T07:01:46.947Z,6.85
2018-03-23T07:04:15.061Z,6.89
2018-03-23T07:06:43.157Z,6.93
2018-03-23T07:09:12.171Z,6.90
2018-03-23T07:11:40.299Z,6.84
2018-03-23T07:14:08.393Z,6.92
2018-03-23T07:16:36.508Z,6.96
2018-03-23T07:19:05.117Z,6.84
2018-03-23T07:21:33.189Z,6.85
2018-03-23T07:24:01.309Z,6.90
2018-03-23T07:26:29.429Z,6.94
2018-03-23T07:28:57.513Z,6.90
2018-03-23T07:31:25.625Z,6.90
2018-03-23T07:33:53.722Z,6.87
2018-03-23T07:36:21.820Z,6.93
2018-03-23T07:38:49.930Z,6.92
2018-03-23T07:41:18.025Z,6.96
2018-03-23T07:43:46.112Z,7.00
2018-03-23T07:46:14.235Z,6.93
2018-03-23T07:48:42.378Z,6.81
2018-03-23T07:51:10.473Z,6.81
2018-03-23T07:53:38.601Z,6.82
2018-03-23T07:56:06.954Z,6.90
2018-03-23T07:58:35.059Z,7.03
2018-03-23T08:01:03.312Z,6.95
2018-03-23T08:03:31.394Z,6.94
2018-03-23T08:05:59.494Z,6.84
2018-03-23T08:08:27.611Z,6.85
2018-03-23T08:10:55.708Z,6.95
2018-03-23T08:13:23.797Z,6.79
2018-03-23T08:15:51.893Z,6.81
2018-03-23T08:18:20.028Z,6.78
2018-03-23T08:20:48.204Z,6.75
2018-03-23T08:23:16.266Z,6.78
2018-03-23T08:25:44.377Z,6.86
2018-03-23T08:28:12.475Z,6.72
2018-03-23T08:30:40.575Z,6.80
2018-03-23T08:33:08.674Z,6.84
2018-03-23T08:35:36.776Z,6.94
2018-03-23T08:38:04.900Z,6.91
2018-03-23T08:40:32.997Z,6.90
2018-03-23T08:43:01.099Z,6.93
2018-03-23T08:45:29.233Z,6.95
2018-03-23T08:47:57.320Z,6.92
2018-03-23T08:50:25.414Z,6.80
2018-03-23T08:52:53.520Z,6.78
2018-03-23T08:55:21.704Z,6.73
2018-03-23T08:57:49.785Z,6.70
2018-03-23T09:02:50.879Z,6.84
2018-03-23T09:05:19.008Z,6.79
2018-03-23T09:07:48.010Z,6.82
2018-03-23T09:10:16.108Z,6.86
2018-03-23T09:12:44.324Z,6.83
2018-03-23T09:15:12.410Z,6.91
2018-03-23T09:17:40.531Z,6.96
2018-03-23T09:20:08.654Z,6.97
2018-03-23T09:22:36.773Z,7.05
2018-03-23T09:25:04.870Z,7.00
2018-03-23T09:27:32.966Z,7.04
2018-03-23T09:30:01.078Z,6.89
2018-03-23T09:32:29.338Z,6.85
2018-03-23T09:34:57.441Z,6.83
2018-03-23T09:37:25.534Z,6.83
2018-03-23T09:39:53.728Z,6.71
2018-03-23T09:42:21.810Z,6.79
2018-03-23T09:44:49.928Z,6.95
2018-03-23T09:47:18.020Z,7.11
2018-03-23T09:49:46.121Z,7.13
2018-03-23T09:52:14.530Z,7.13
2018-03-23T09:54:43.106Z,7.05
2018-03-23T10:10:11.494Z,7.10
2018-03-23T10:12:40.214Z,7.06
2018-03-23T10:15:08.322Z,7.07
2018-03-23T10:17:36.430Z,7.01
2018-03-23T10:20:04.536Z,7.07
2018-03-23T10:22:32.638Z,7.18
2018-03-23T10:25:00.767Z,7.26
2018-03-23T10:27:28.924Z,7.08
2018-03-23T10:29:57.036Z,7.08
2018-03-23T10:32:25.118Z,7.07
2018-03-23T10:34:54.138Z,7.12
2018-03-23T10:37:22.222Z,7.01
2018-03-23T10:39:50.362Z,7.08
2018-03-23T10:42:18.451Z,6.98
2018-03-23T10:44:47.385Z,6.99
2018-03-23T10:47:15.469Z,7.04
2018-03-23T10:49:43.578Z,7.09
2018-03-23T10:52:11.695Z,7.15
2018-03-23T10:54:39.835Z,7.22
2018-03-23T10:57:07.910Z,7.20
2018-03-23T10:59:36.392Z,7.08
2018-03-23T11:02:07.320Z,7.15
2018-03-23T11:04:35.426Z,7.22
2018-03-23T11:07:03.534Z,7.20
2018-03-23T11:09:31.645Z,7.06
2018-03-23T11:11:59.772Z,7.09
2018-03-23T11:14:27.868Z,7.07
2018-03-23T11:16:55.954Z,7.14
2018-03-23T11:19:24.538Z,7.21
2018-03-23T11:21:52.640Z,7.20
2018-03-23T11:24:20.772Z,7.21
2018-03-23T11:26:48.851Z,7.29
2018-03-23T11:29:16.998Z,7.38
2018-03-23T11:31:45.096Z,7.37
2018-03-23T11:34:13.189Z,7.43
2018-03-23T11:36:41.316Z,7.54
2018-03-23T11:39:09.714Z,7.51
2018-03-23T11:41:37.806Z,7.49
2018-03-23T11:44:05.948Z,7.59
2018-03-23T11:46:34.159Z,7.58
2018-03-23T11:49:02.309Z,7.60
2018-03-23T11:51:30.441Z,7.47
2018-03-23T11:53:58.538Z,7.50
2018-03-23T11:56:26.689Z,7.56
2018-03-23T11:58:54.790Z,7.64
2018-03-23T12:01:22.918Z,7.60
2018-03-23T12:03:50.990Z,7.72
2018-03-23T12:06:19.892Z,7.82
2018-03-23T12:08:47.994Z,7.70
2018-03-23T12:11:16.096Z,7.73
2018-03-23T12:13:44.206Z,7.64
2018-03-23T12:16:12.384Z,7.67
2018-03-23T12:18:40.590Z,7.79
2018-03-23T12:21:09.000Z,7.90
2018-03-23T12:23:37.322Z,7.88
2018-03-23T12:26:05.411Z,7.87
2018-03-23T12:28:33.565Z,7.84
2018-03-23T12:31:02.392Z,7.85
2018-03-23T12:33:30.481Z,7.83
2018-03-23T12:35:58.632Z,7.89
2018-03-23T12:38:26.784Z,7.95
2018-03-23T12:40:54.917Z,8.01
2018-03-23T12:43:23.032Z,7.88
2018-03-23T12:45:51.133Z,7.86
2018-03-23T12:48:20.220Z,7.76
2018-03-23T12:50:48.343Z,7.86
2018-03-23T12:53:16.398Z,7.91
2018-03-23T12:55:44.511Z,7.79
2018-03-23T12:58:12.713Z,7.89
2018-03-23T13:00:41.670Z,7.91
2018-03-23T13:03:09.783Z,7.90
2018-03-23T13:05:37.881Z,7.80
2018-03-23T13:08:06.263Z,7.85
2018-03-23T13:10:36.003Z,7.89
2018-03-23T13:13:04.109Z,7.84
2018-03-23T13:15:32.214Z,7.82
2018-03-23T13:18:00.336Z,7.84
2018-03-23T13:20:28.434Z,7.85
2018-03-23T13:22:56.566Z,7.79
2018-03-23T13:25:24.693Z,7.79
2018-03-23T13:27:52.822Z,7.82
2018-03-23T13:30:20.994Z,7.77
2018-03-23T13:32:49.068Z,7.79
2018-03-23T13:35:17.195Z,7.80
2018-03-23T13:37:45.314Z,7.85
2018-03-23T13:40:13.486Z,7.82
2018-03-23T13:42:41.654Z,7.87
2018-03-23T13:45:09.742Z,7.88
2018-03-23T13:47:37.844Z,7.93
2018-03-23T13:50:05.974Z,7.97
2018-03-23T13:52:34.098Z,8.00
2018-03-23T13:55:02.564Z,8.02
2018-03-23T13:57:31.206Z,7.99
2018-03-23T13:59:59.376Z,7.97
2018-03-23T14:02:27.490Z,7.99
2018-03-23T14:04:55.930Z,7.96
2018-03-23T14:07:24.004Z,8.00
2018-03-23T14:09:52.146Z,8.02
2018-03-23T14:12:21.030Z,8.01
2018-03-23T14:14:49.132Z,8.05
2018-03-23T14:17:17.237Z,8.01
2018-03-23T14:19:45.330Z,7.97
2018-03-23T14:22:14.224Z,8.03
2018-03-23T14:24:42.344Z,8.03
2018-03-23T14:27:10.442Z,8.07
2018-03-23T14:29:38.591Z,8.05
2018-03-23T14:32:06.708Z,8.10
2018-03-23T14:34:35.626Z,8.06
2018-03-23T14:37:03.746Z,8.09
2018-03-23T14:39:31.822Z,8.08
2018-03-23T14:41:59.959Z,7.99
2018-03-23T14:44:28.778Z,8.08
2018-03-23T14:46:56.921Z,8.09
2018-03-23T14:49:25.744Z,8.12
2018-03-23T14:51:53.843Z,8.15
2018-03-23T14:54:21.946Z,8.10
2018-03-23T14:56:50.075Z,7.99
2018-03-23T14:59:18.176Z,8.00
2018-03-23T15:01:46.322Z,8.00
2018-03-23T15:04:14.414Z,7.95
2018-03-23T15:06:42.635Z,8.03
2018-03-23T15:09:16.982Z,7.92
2018-03-23T15:11:50.527Z,7.85
2018-03-23T15:14:19.410Z,7.77
2018-03-23T15:16:47.782Z,7.77
2018-03-23T15:19:15.945Z,7.77
2018-03-23T15:21:44.102Z,7.76
2018-03-23T15:24:12.190Z,7.71
2018-03-23T15:26:41.242Z,7.65
2018-03-23T15:29:09.371Z,7.68
2018-03-23T15:31:37.484Z,7.69
2018-03-23T15:34:06.086Z,7.71
2018-03-23T15:36:34.213Z,7.72
2018-03-23T15:39:02.313Z,7.68
2018-03-23T15:41:30.452Z,7.58
2018-03-23T15:43:59.242Z,7.62
2018-03-23T15:46:27.336Z,7.63
2018-03-23T15:48:55.461Z,7.64
2018-03-23T15:51:24.245Z,7.66
2018-03-23T15:53:52.332Z,7.68
2018-03-23T15:56:21.322Z,7.68
2018-03-23T15:58:49.400Z,7.68
2018-03-23T16:01:17.535Z,7.77
2018-03-23T16:03:45.682Z,7.69
2018-03-23T16:06:13.765Z,7.72
2018-03-23T16:08:42.660Z,7.80
2018-03-23T16:11:11.510Z,7.75
2018-03-23T16:13:39.607Z,7.77
2018-03-23T16:16:07.707Z,7.74
2018-03-23T16:18:35.878Z,7.82
2018-03-23T16:21:04.068Z,7.89
2018-03-23T16:23:32.442Z,7.85
2018-03-23T16:26:00.536Z,7.85
2018-03-23T16:28:28.643Z,7.86
2018-03-23T16:30:56.748Z,7.90
2018-03-23T16:33:24.873Z,7.96
2018-03-23T16:35:52.976Z,8.01
2018-03-23T16:38:21.225Z,7.95
2018-03-23T16:40:49.411Z,7.95
2018-03-23T16:43:17.516Z,7.89
2018-03-23T16:45:45.797Z,7.84
2018-03-23T16:48:13.941Z,7.84
2018-03-23T16:50:42.079Z,7.91
2018-03-23T16:53:10.877Z,7.95
2018-03-23T17:08:39.067Z,8.00
2018-03-23T17:11:07.661Z,8.07
2018-03-23T17:13:35.909Z,8.14
2018-03-23T17:16:04.066Z,8.14
2018-03-23T17:18:32.185Z,8.11
2018-03-23T17:21:00.350Z,8.09
2018-03-23T17:23:28.572Z,8.11
2018-03-23T17:25:57.107Z,8.10
2018-03-23T17:28:25.200Z,8.03
2018-03-23T17:30:53.394Z,8.11
2018-03-23T17:46:21.517Z,8.06
2018-03-23T17:48:49.826Z,8.11
2018-03-23T17:51:18.047Z,8.09
2018-03-23T17:53:46.211Z,8.12
2018-03-23T17:56:14.412Z,8.18
2018-03-23T17:58:47.446Z,8.20
2018-03-23T18:01:15.755Z,8.23
2018-03-23T18:03:43.869Z,8.25
2018-03-23T18:06:11.986Z,8.29
2018-03-23T18:08:40.344Z,8.29
2018-03-23T18:11:08.459Z,8.30
2018-03-23T18:13:36.552Z,8.28
2018-03-23T18:16:04.701Z,8.27
2018-03-23T18:18:33.275Z,8.24
2018-03-23T18:21:01.641Z,8.24
2018-03-23T18:23:29.970Z,8.31
2018-03-23T18:25:58.293Z,8.29
2018-03-23T18:28:26.602Z,8.26
2018-03-23T18:30:54.917Z,8.23
2018-03-23T18:33:23.272Z,8.27
2018-03-23T18:35:51.441Z,8.30
2018-03-23T18:38:19.599Z,8.33
2018-03-23T18:40:47.932Z,8.30
2018-03-23T18:43:17.404Z,8.23
2018-03-23T18:45:45.529Z,8.26
2018-03-23T18:48:14.421Z,8.19
2018-03-23T18:50:42.503Z,8.15
2018-03-23T18:53:10.841Z,8.09
2018-03-23T18:55:39.008Z,8.08
2018-03-23T18:58:07.355Z,8.07
2018-03-23T19:00:35.849Z,8.10
2018-03-23T19:03:04.555Z,8.16
2018-03-23T19:05:33.108Z,8.11
2018-03-23T19:08:01.461Z,8.15
2018-03-23T19:10:30.626Z,8.16
2018-03-23T19:12:58.741Z,8.14
2018-03-23T19:15:26.908Z,8.07
2018-03-23T19:17:55.159Z,8.03
2018-03-23T19:20:23.281Z,8.01
2018-03-23T19:22:51.601Z,7.98
2018-03-23T19:25:19.958Z,7.97
2018-03-23T19:27:48.230Z,7.94
2018-03-23T19:30:16.382Z,7.96
2018-03-23T19:32:44.666Z,7.94
2018-03-23T19:35:13.033Z,7.96
2018-03-23T19:37:43.103Z,7.94
2018-03-23T19:40:11.205Z,7.91
2018-03-23T19:42:40.215Z,7.95
2018-03-23T19:45:08.358Z,7.97
2018-03-23T19:47:36.642Z,7.97
2018-03-23T19:50:05.016Z,7.99
2018-03-23T19:52:33.145Z,7.99
2018-03-23T19:55:01.548Z,7.95
2018-03-23T19:57:29.963Z,7.90
2018-03-23T19:59:58.395Z,7.91
2018-03-23T20:02:26.665Z,7.88
2018-03-23T20:04:54.863Z,7.85
2018-03-23T20:20:28.677Z,7.87
2018-03-23T20:22:56.811Z,7.87
2018-03-23T20:25:25.295Z,7.89
2018-03-23T20:28:00.202Z,7.89
2018-03-23T20:30:28.296Z,7.81
2018-03-23T20:32:57.126Z,7.81
2018-03-23T20:35:25.265Z,7.84
2018-03-23T20:37:53.366Z,7.81
2018-03-23T20:40:21.499Z,7.86
2018-03-23T20:42:49.639Z,7.85
2018-03-23T20:45:17.761Z,7.85
2018-03-23T20:47:45.899Z,7.87
2018-03-23T20:50:14.035Z,7.87
2018-03-23T20:52:42.166Z,7.86
2018-03-23T20:55:10.266Z,7.87
2018-03-23T20:57:38.988Z,7.90
2018-03-23T21:00:07.198Z,7.89
2018-03-23T21:02:35.496Z,7.88
2018-03-23T21:05:03.698Z,7.84
2018-03-23T21:07:31.938Z,7.81
2018-03-23T21:10:00.133Z,7.79
2018-03-23T21:12:28.191Z,7.81
2018-03-23T21:14:56.408Z,7.82
2018-03-23T21:17:29.488Z,7.77
2018-03-23T21:19:57.586Z,7.78
2018-03-23T21:25:01.251Z,7.75
2018-03-23T21:27:29.370Z,7.78
2018-03-23T21:29:57.483Z,7.73
2018-03-23T21:32:26.295Z,7.73
2018-03-23T21:34:54.489Z,7.75
2018-03-23T21:37:22.624Z,7.76
2018-03-23T21:39:50.832Z,7.79
2018-03-23T21:42:18.958Z,7.76
2018-03-23T21:44:47.153Z,7.75
2018-03-23T21:47:15.246Z,7.72
2018-03-23T21:49:43.347Z,7.76
2018-03-23T21:52:11.466Z,7.71
2018-03-23T21:54:39.580Z,7.67
2018-03-23T21:57:07.675Z,7.61
2018-03-23T21:59:35.772Z,7.63
2018-03-23T22:02:03.890Z,7.63
2018-03-23T22:04:31.994Z,7.66
2018-03-23T22:07:00.098Z,7.72
2018-03-23T22:09:28.197Z,7.76
2018-03-23T22:11:56.328Z,7.75
2018-03-23T22:14:24.418Z,7.68
2018-03-23T22:16:52.514Z,7.71
2018-03-23T22:19:20.641Z,7.77
2018-03-23T22:21:48.746Z,7.82
2018-03-23T22:24:16.846Z,7.80
2018-03-23T22:26:44.958Z,7.79
2018-03-23T22:29:13.100Z,7.81
2018-03-23T22:31:41.213Z,7.81
2018-03-23T22:34:09.606Z,7.72
2018-03-23T22:36:37.690Z,7.72
2018-03-23T22:39:05.796Z,7.73
2018-03-23T22:41:35.039Z,7.76
2018-03-23T22:44:03.140Z,7.75
2018-03-23T22:46:31.294Z,7.74
2018-03-23T22:49:00.446Z,7.69
2018-03-23T22:51:28.574Z,7.70
2018-03-23T22:53:56.737Z,7.75
2018-03-23T22:56:24.836Z,7.75
2018-03-23T22:58:52.934Z,7.79
2018-03-23T23:01:21.042Z,7.78
2018-03-23T23:03:49.158Z,7.78
2018-03-23T23:06:17.252Z,7.81
2018-03-23T23:08:45.352Z,7.79
2018-03-23T23:11:13.460Z,7.71
2018-03-23T23:13:41.571Z,7.68
2018-03-23T23:16:09.649Z,7.67
2018-03-23T23:18:37.764Z,7.72
2018-03-23T23:21:05.873Z,7.76
2018-03-23T23:23:33.950Z,7.74
2018-03-23T23:26:02.070Z,7.71
2018-03-23T23:28:30.412Z,7.78
2018-03-23T23:30:58.510Z,7.80
2018-03-23T23:33:26.747Z,7.82
2018-03-23T23:35:54.842Z,7.84
2018-03-23T23:38:22.930Z,7.80
2018-03-23T23:40:51.095Z,7.77
2018-03-23T23:43:19.167Z,7.80
2018-03-23T23:45:47.270Z,7.73
2018-03-23T23:48:15.392Z,7.76
2018-03-23T23:50:43.495Z,7.76
2018-03-23T23:53:11.643Z,7.78
2018-03-23T23:55:39.723Z,7.79
2018-03-23T23:58:07.821Z,7.75
